Morning Cedar — D7LR — position and weather

sailwx.info

Track history (hours):
 
Tides and Currents Weather Stations Pressure Air Temp Water Temp Dewpoint Dewpoint Depression Visibility Wind Speed Wind Dir Waves Ship Positions

Morning Cedar

Last reported at 2014-Oct-02 02:33 UTC. Time now 2014-Oct-02 02:37 UTC.
Position S 32°57' E 151°51'.

Length 269 m; draft 8.4 m.

Type: Cargo ship. MMSI: 440106000.

Date/timePositionNaut miles runAvg speedWind from/ knotsBaromVisibWave heightAir tempDewpointWater temp
2014-Oct-02 02:33S 32°57' E 151°51'6 6.5
2014-Oct-02 01:33S 33°02' E 151°56'5 5.0
2014-Oct-02 00:33S 33°01' E 152°02'6 6.4
2014-Oct-01 23:33S 32°57' E 152°08'8 7.8
2014-Oct-01 22:33S 32°52' E 152°15'1110.8
2014-Oct-01 21:33S 32°44' E 152°24'1111.0
2014-Oct-01 20:33S 32°36' E 152°33'1110.8
2014-Oct-01 19:33S 32°27' E 152°41'26612.6
2014-Sep-30 22:30S 28°11' E 154°05'2215.7
2014-Sep-30 21:07S 27°50' E 154°06'12515.7
2014-Sep-30 13:09S 25°45' E 154°08'  
Track history (hours):
 
Tides and Currents Weather Stations Pressure Air Temp Water Temp Dewpoint Dewpoint Depression Visibility Wind Speed Wind Dir Waves Ship Positions

Morning Cedar

Last reported at 2014-Oct-02 02:33 UTC. Time now 2014-Oct-02 02:37 UTC.
Position S 32°57' E 151°51'.

Length 269 m; draft 8.4 m.

Type: Cargo ship. MMSI: 440106000.

Date/timePositionNaut miles runAvg speedWind from/ knotsBaromVisibWave heightAir tempDewpointWater temp
2014-Oct-02 02:33S 32°57' E 151°51'6 6.5
2014-Oct-02 01:33S 33°02' E 151°56'5 5.0
2014-Oct-02 00:33S 33°01' E 152°02'6 6.4
2014-Oct-01 23:33S 32°57' E 152°08'8 7.8
2014-Oct-01 22:33S 32°52' E 152°15'1110.8
2014-Oct-01 21:33S 32°44' E 152°24'1111.0
2014-Oct-01 20:33S 32°36' E 152°33'1110.8
2014-Oct-01 19:33S 32°27' E 152°41'26612.6
2014-Sep-30 22:30S 28°11' E 154°05'2215.7
2014-Sep-30 21:07S 27°50' E 154°06'12515.7
2014-Sep-30 13:09S 25°45' E 154°08'  

Dump ship's entire track history